Flight Track Log - Related Links

Times and Time Zones

All times are in EDT time to prevent confusion due to time zone crossing. See the JBU1329 flight status page for this flight to view local times or setup timezone preferences in your user account.

Time Position Orientation Groundspeed Altitude Reporting Facility
EDT Latitude Longitude Course Direction KTS MPH feet Rate Location/Type
Thu 09:20:47 AM 42.3500 -71.0167 240° Southwest 165 190 900  Level KA90
Thu 09:21:36 AM 42.3167 -70.9833 144° Southeast 208 239 2,600 2,885 Climbing KA90
Thu 09:23:23 AM 42.3267 -70.8478 84° East 228 262 8,400 2,874 Climbing Boston Center
Thu 09:24:00 AM 42.2975 -70.7205 228° Southwest  Level FlightAware Approximate
Thu 09:24:23 AM 42.3211 -70.7553 95° East 239 275 10,600  Level Boston Center
Thu 09:25:00 AM 42.2340 -70.8157 228° Southwest  Level FlightAware Approximate
Thu 09:25:23 AM 42.2478 -70.7236 162° South 218 251 13,300  Level Boston Center
Thu 09:26:00 AM 42.1863 -70.9265 240° Southwest  Level FlightAware Approximate
Thu 09:26:23 AM 42.1858 -70.7644 206° Southwest 218 251 14,600  Level Boston Center
Thu 09:27:23 AM 42.1650 -70.9022 259° West 222 255 18,700 3,100 Climbing Boston Center
Thu 09:28:23 AM 42.1539 -71.0231 263° West 256 295 20,800 1,750 Climbing Boston Center
Thu 09:29:23 AM 42.1431 -71.1578 264° West 315 362 22,200 1,750 Climbing Boston Center
Thu 09:30:23 AM 42.1319 -71.2950 264° West 355 409 24,300 2,050 Climbing Boston Center
Thu 09:31:23 AM 42.1189 -71.4353 263° West 370 426 26,300 1,850 Climbing Boston Center
Thu 09:32:23 AM 42.1011 -71.5728 260° West 381 438 28,000 850 Climbing Boston Center
Thu 09:33:23 AM 42.0603 -71.7075 248° West 381 438 28,000  Level Boston Center
Thu 09:34:23 AM 42.0092 -71.8311 241° Southwest 381 438 28,000  Level Boston Center
Thu 09:35:23 AM 41.9575 -71.9572 241° Southwest 381 438 28,000  Level Boston Center
Thu 09:36:23 AM 41.9081 -72.0803 242° Southwest 386 444 28,000  Level Boston Center
Thu 09:37:23 AM 41.8542 -72.2089 241° Southwest 391 450 28,000  Level Boston Center
Thu 09:38:23 AM 41.8042 -72.3369 242° Southwest 396 456 28,000  Level Boston Center
Thu 09:39:23 AM 41.7522 -72.4594 240° Southwest 396 456 28,000  Level Boston Center
Thu 09:40:23 AM 41.7000 -72.5875 241° Southwest 396 456 28,000  Level Boston Center
Thu 09:41:23 AM 41.6478 -72.7122 241° Southwest 396 456 28,000  Level Boston Center
Thu 09:42:23 AM 41.6036 -72.8147 240° Southwest 396 456 28,000  Level Boston Center
Thu 09:43:23 AM 41.5425 -72.9642 241° Southwest 396 456 28,000  Level Boston Center
Thu 09:44:23 AM 41.4919 -73.0886 242° Southwest 391 450 28,000  Level Boston Center
Thu 09:45:23 AM 41.4411 -73.2128 241° Southwest 391 450 28,000  Level Boston Center
Thu 09:46:23 AM 41.3881 -73.3364 240° Southwest 391 450 28,000  Level Boston Center
Thu 09:47:35 AM 41.3328 -73.4603 239° Southwest 396 456 28,000  Level Boston Center
Thu 09:49:41 AM 41.1908 -73.7406 236° Southwest 387 445 28,000  Level New York Center
Thu 09:50:41 AM 41.1256 -73.8478 231° Southwest 392 451 28,000  Level New York Center
Thu 09:51:42 AM 41.0581 -73.9603 232° Southwest 392 451 28,000  Level New York Center
Thu 09:52:40 AM 40.9906 -74.0725 231° Southwest 392 451 28,000  Level New York Center
Thu 09:53:40 AM 40.9247 -74.1847 232° Southwest 392 451 28,000  Level New York Center
Thu 09:54:42 AM 40.8594 -74.2856 229° Southwest 397 457 28,000  Level New York Center
Thu 09:55:42 AM 40.7936 -74.3947 231° Southwest 397 457 28,000  Level New York Center
Thu 09:56:42 AM 40.7275 -74.5061 232° Southwest 392 451 28,000  Level New York Center
Thu 09:57:40 AM 40.6572 -74.6172 230° Southwest 392 451 28,000  Level New York Center
Thu 09:58:41 AM 40.5911 -74.7283 232° Southwest 392 451 28,000 -400 Level New York Center
Thu 09:59:40 AM 40.5189 -74.8333 228° Southwest 392 451 27,200 -1,261 Descending New York Center
Thu 10:00:40 AM 40.4442 -74.9381 227° Southwest 392 451 25,500 -1,736 Descending New York Center
Thu 10:01:41 AM 40.3742 -75.0372 227° Southwest 392 451 23,700 -1,686 Descending New York Center
Thu 10:02:41 AM 40.3036 -75.1364 227° Southwest 386 444 22,100 -1,815 Descending New York Center
Thu 10:03:40 AM 40.2308 -75.2433 228° Southwest 373 429 20,100 -1,765 Descending New York Center
Thu 10:04:40 AM 40.1606 -75.3364 225° Southwest 368 423 18,600 -1,041 Descending New York Center
Thu 10:05:41 AM 40.0944 -75.4272 226° Southwest 354 407 18,000 -295 Descending New York Center
Thu 10:06:42 AM 40.0350 -75.5100 227° Southwest 354 407 18,000  Level New York Center
Thu 10:07:41 AM 39.9622 -75.6053 225° Southwest 354 407 18,000 -50 Level New York Center
Thu 10:08:41 AM 39.9067 -75.6906 230° Southwest 354 407 17,900 -992 Descending New York Center
Thu 10:09:42 AM 39.8475 -75.8083 237° Southwest 346 398 16,000 -1,879 Descending New York Center
Thu 10:11:43 AM 39.7500 -76.0000 237° Southwest 328 377 12,200 -1,765 Descending Potomac TRACON
Thu 10:12:49 AM 39.7000 -76.1000 237° Southwest 292 336 10,500 -1,323 Descending Potomac TRACON
Thu 10:13:50 AM 39.6500 -76.1833 232° Southwest 272 313 9,400 -1,438 Descending Potomac TRACON
Thu 10:14:50 AM 39.6167 -76.2833 247° West 276 318 7,600 -1,785 Descending Potomac TRACON
Thu 10:15:51 AM 39.5667 -76.3667 232° Southwest 272 313 5,800 -1,654 Descending Potomac TRACON
Thu 10:16:57 AM 39.5333 -76.4667 247° West 269 310 4,100 -850 Descending Potomac TRACON
Thu 10:17:58 AM 39.5000 -76.5500 243° Southwest 269 310 4,000 -52 Descending Potomac TRACON
Thu 10:18:52 AM 39.4500 -76.6167 226° Southwest 263 303 4,000 -150 Level Potomac TRACON
Thu 10:19:58 AM 39.4000 -76.6833 226° Southwest 257 296 3,700 -496 Descending Potomac TRACON
Thu 10:20:53 AM 39.3500 -76.7333 218° Southwest 247 284 3,000 -347 Descending Potomac TRACON
Thu 10:21:59 AM 39.3000 -76.7833 218° Southwest 188 216 3,000 -200 Level Potomac TRACON
Thu 10:22:53 AM 39.2667 -76.8167 218° Southwest 185 213 2,600 -444 Descending Potomac TRACON
Thu 10:23:47 AM 39.2167 -76.8167 180° South 180 207 2,200 -574 Descending Potomac TRACON
Thu 10:24:48 AM 39.1833 -76.7833 142° Southeast 170 196 1,500 -694 Descending Potomac TRACON
Thu 10:25:48 AM 39.1833 -76.7333 90° East 141 162 800 -700 Descending Potomac TRACON

Login

Don't have an account? Register now (free) for customized features, flight alerts, and more!